37.1°F
Current conditions from King Hill
Updated every 5 minutes
 
  Friday October 31, 2014

Station Historical Data
Daily Summary for March 31, 2012 Units:  Both    English   Metric
« Previous Day
Next Day »
Daily Weekly Monthly Yearly Custom
  High: Low: Average:
Temperature: 47.5 °F /  8.6 °C 26.2 °F /  -3.2 °C 35.8 °F /  2.1 °C
Dew Point: 22.4 °F /  -5.3 °C 15.7 °F /  -9.1 °C 19.5 °F /  -6.9 °C
Humidity: 71% 30% 53%
Wind Speed: 8.0mph /  12.9km/h - 2.8mph /  4.5km/h
Wind Gust: 16.0mph /  25.7km/h - -
Wind- - SW
Pressure: 30.02 in /  1016.5 hPa 29.86 in /  1011.1 hPa -
Precipitation: 0.00 in /  0 mm    
Historical Graphs
 
 
Tabular Data for March 31, 2012
Time Temperature Dew Point Pressure Wind Wind Speed Wind Gust Humidity Daily Rainfall
00:05 27.9 °F /  -2.3 °C 18.4 °F /  -7.6 °C 30.02in /  1016.5hPa Calm     67% 0.00in /  0mm
00:14 27.6 °F /  -2.4 °C 18.1 °F /  -7.7 °C 30.02in /  1016.5hPa Calm     67% 0.00in /  0mm
00:19 27.4 °F /  -2.6 °C 18.2 °F /  -7.7 °C 30.02in /  1016.5hPa Calm     68% 0.00in /  0mm
00:24 27.3 °F /  -2.6 °C 18.1 °F /  -7.7 °C 30.02in /  1016.5hPa Calm     68% 0.00in /  0mm
00:29 27.2 °F /  -2.7 °C 18.7 °F /  -7.4 °C 30.02in /  1016.5hPa Calm     70% 0.00in /  0mm
00:34 27.0 °F /  -2.8 °C 18.5 °F /  -7.5 °C 30.02in /  1016.5hPa Calm     70% 0.00in /  0mm
00:39 26.7 °F /  -2.9 °C 17.9 °F /  -7.8 °C 30.02in /  1016.5hPa Calm     69% 0.00in /  0mm
00:49 26.5 °F /  -3.1 °C 17.7 °F /  -7.9 °C 30.01in /  1016.1hPa Calm     69% 0.00in /  0mm
00:54 26.3 °F /  -3.2 °C 18.2 °F /  -7.7 °C 30.01in /  1016.1hPa Calm     71% 0.00in /  0mm
00:59 26.2 °F /  -3.2 °C 18.1 °F /  -7.7 °C 30.01in /  1016.1hPa Calm     71% 0.00in /  0mm
01:04 26.3 °F /  -3.2 °C 17.5 °F /  -8.1 °C 30.01in /  1016.1hPa Calm     69% 0.00in /  0mm
01:09 26.4 °F /  -3.1 °C 17.3 °F /  -8.2 °C 30.01in /  1016.1hPa Calm     68% 0.00in /  0mm
01:14 26.5 °F /  -3.1 °C 17.4 °F /  -8.1 °C 30.01in /  1016.1hPa Calm     68% 0.00in /  0mm
01:19 26.8 °F /  -2.9 °C 18.0 °F /  -7.8 °C 30.01in /  1016.1hPa Calm     69% 0.00in /  0mm
01:24 27.2 °F /  -2.7 °C 18.4 °F /  -7.6 °C 30.01in /  1016.1hPa Calm     69% 0.00in /  0mm
01:30 27.4 °F /  -2.6 °C 19.2 °F /  -7.1 °C 30.01in /  1016.1hPa Calm     71% 0.00in /  0mm
01:40 27.4 °F /  -2.6 °C 18.2 °F /  -7.7 °C 30.02in /  1016.5hPa Calm     68% 0.00in /  0mm
01:49 27.7 °F /  -2.4 °C 19.2 °F /  -7.1 °C 30.01in /  1016.1hPa Calm     70% 0.00in /  0mm
01:54 27.8 °F /  -2.3 °C 19.0 °F /  -7.2 °C 30.02in /  1016.5hPa Calm     69% 0.00in /  0mm
02:04 28.1 °F /  -2.2 °C 18.9 °F /  -7.3 °C 30.01in /  1016.1hPa Calm     68% 0.00in /  0mm
02:09 27.9 °F /  -2.3 °C 19.4 °F /  -7 °C 30.01in /  1016.1hPa Calm     70% 0.00in /  0mm
02:14 27.7 °F /  -2.4 °C 19.5 °F /  -6.9 °C 30.01in /  1016.1hPa Calm     71% 0.00in /  0mm
02:19 27.5 °F /  -2.5 °C 19.0 °F /  -7.2 °C 30.01in /  1016.1hPa Calm     70% 0.00in /  0mm
02:24 27.6 °F /  -2.4 °C 19.1 °F /  -7.2 °C 30.01in /  1016.1hPa Calm     70% 0.00in /  0mm
02:29 27.7 °F /  -2.4 °C 19.5 °F /  -6.9 °C 30.00in /  1015.8hPa Calm     71% 0.00in /  0mm
02:34 27.9 °F /  -2.3 °C 18.4 °F /  -7.6 °C 30.00in /  1015.8hPa Calm     67% 0.00in /  0mm
02:39 28.1 °F /  -2.2 °C 19.6 °F /  -6.9 °C 30.00in /  1015.8hPa Calm     70% 0.00in /  0mm
02:44 28.1 °F /  -2.2 °C 19.9 °F /  -6.7 °C 30.00in /  1015.8hPa Calm   2.0mph /  3.2km/h 71% 0.00in /  0mm
02:54 28.4 °F /  -2 °C 18.8 °F /  -7.3 °C 30.00in /  1015.8hPa Calm   1.0mph /  1.6km/h 67% 0.00in /  0mm
02:59 28.7 °F /  -1.8 °C 18.8 °F /  -7.3 °C 30.00in /  1015.8hPa ENE 1.0mph /  1.6km/h 3.0mph /  4.8km/h 66% 0.00in /  0mm
03:04 28.9 °F /  -1.7 °C 18.3 °F /  -7.6 °C 30.00in /  1015.8hPa ENE 1.0mph /  1.6km/h 4.0mph /  6.4km/h 64% 0.00in /  0mm
03:09 29.0 °F /  -1.7 °C 18.7 °F /  -7.4 °C 30.00in /  1015.8hPa Calm   4.0mph /  6.4km/h 65% 0.00in /  0mm
03:14 29.0 °F /  -1.7 °C 18.7 °F /  -7.4 °C 30.00in /  1015.8hPa Calm   4.0mph /  6.4km/h 65% 0.00in /  0mm
03:19 28.8 °F /  -1.8 °C 18.9 °F /  -7.3 °C 30.00in /  1015.8hPa Calm     66% 0.00in /  0mm
03:24 28.6 °F /  -1.9 °C 19.0 °F /  -7.2 °C 30.00in /  1015.8hPa Calm     67% 0.00in /  0mm
03:29 28.5 °F /  -1.9 °C 19.3 °F /  -7.1 °C 30.00in /  1015.8hPa Calm     68% 0.00in /  0mm
03:34 28.4 °F /  -2 °C 18.8 °F /  -7.3 °C 30.00in /  1015.8hPa Calm     67% 0.00in /  0mm
03:39 28.3 °F /  -2.1 °C 19.1 °F /  -7.2 °C 30.00in /  1015.8hPa Calm     68% 0.00in /  0mm
03:44 28.2 °F /  -2.1 °C 19.3 °F /  -7.1 °C 30.00in /  1015.8hPa Calm     69% 0.00in /  0mm
03:54 28.2 °F /  -2.1 °C 19.3 °F /  -7.1 °C 29.99in /  1015.5hPa Calm     69% 0.00in /  0mm
03:59 28.2 °F /  -2.1 °C 19.7 °F /  -6.8 °C 29.99in /  1015.5hPa Calm     70% 0.00in /  0mm
04:04 28.2 °F /  -2.1 °C 19.3 °F /  -7.1 °C 29.99in /  1015.5hPa Calm   2.0mph /  3.2km/h 69% 0.00in /  0mm
04:09 28.3 °F /  -2.1 °C 19.4 °F /  -7 °C 29.99in /  1015.5hPa Calm   2.0mph /  3.2km/h 69% 0.00in /  0mm
04:14 28.3 °F /  -2.1 °C 19.8 °F /  -6.8 °C 29.99in /  1015.5hPa Calm   1.0mph /  1.6km/h 70% 0.00in /  0mm
04:19 28.3 °F /  -2.1 °C 19.8 °F /  -6.8 °C 29.99in /  1015.5hPa Calm     70% 0.00in /  0mm
04:24 28.3 °F /  -2.1 °C 19.8 °F /  -6.8 °C 29.99in /  1015.5hPa ENE 1.0mph /  1.6km/h 2.0mph /  3.2km/h 70% 0.00in /  0mm
04:29 28.4 °F /  -2 °C 19.2 °F /  -7.1 °C 29.99in /  1015.5hPa Calm   4.0mph /  6.4km/h 68% 0.00in /  0mm
04:34 28.5 °F /  -1.9 °C 19.6 °F /  -6.9 °C 29.99in /  1015.5hPa Calm   4.0mph /  6.4km/h 69% 0.00in /  0mm
04:39 28.6 °F /  -1.9 °C 19.4 °F /  -7 °C 29.99in /  1015.5hPa Calm   3.0mph /  4.8km/h 68% 0.00in /  0mm
04:44 28.7 °F /  -1.8 °C 19.5 °F /  -6.9 °C 29.99in /  1015.5hPa Calm   2.0mph /  3.2km/h 68% 0.00in /  0mm
04:49 28.7 °F /  -1.8 °C 19.1 °F /  -7.2 °C 29.98in /  1015.1hPa Calm   3.0mph /  4.8km/h 67% 0.00in /  0mm
04:54 28.7 °F /  -1.8 °C 19.1 °F /  -7.2 °C 29.98in /  1015.1hPa Calm   3.0mph /  4.8km/h 67% 0.00in /  0mm
04:59 28.7 °F /  -1.8 °C 19.1 °F /  -7.2 °C 29.99in /  1015.5hPa Calm   4.0mph /  6.4km/h 67% 0.00in /  0mm
05:04 28.7 °F /  -1.8 °C 19.1 °F /  -7.2 °C 29.98in /  1015.1hPa Calm   4.0mph /  6.4km/h 67% 0.00in /  0mm
05:09 28.6 °F /  -1.9 °C 19.0 °F /  -7.2 °C 29.99in /  1015.5hPa Calm   2.0mph /  3.2km/h 67% 0.00in /  0mm
05:14 28.6 °F /  -1.9 °C 19.0 °F /  -7.2 °C 29.98in /  1015.1hPa ENE 1.0mph /  1.6km/h 3.0mph /  4.8km/h 67% 0.00in /  0mm
05:19 28.5 °F /  -1.9 °C 19.3 °F /  -7.1 °C 29.98in /  1015.1hPa Calm   3.0mph /  4.8km/h 68% 0.00in /  0mm
05:24 28.5 °F /  -1.9 °C 18.9 °F /  -7.3 °C 29.99in /  1015.5hPa Calm   4.0mph /  6.4km/h 67% 0.00in /  0mm
05:29 28.5 °F /  -1.9 °C 18.9 °F /  -7.3 °C 29.98in /  1015.1hPa Calm   4.0mph /  6.4km/h 67% 0.00in /  0mm
05:34 28.4 °F /  -2 °C 18.8 °F /  -7.3 °C 29.98in /  1015.1hPa Calm   2.0mph /  3.2km/h 67% 0.00in /  0mm
05:39 28.5 °F /  -1.9 °C 18.9 °F /  -7.3 °C 29.98in /  1015.1hPa ENE 1.0mph /  1.6km/h 2.0mph /  3.2km/h 67% 0.00in /  0mm
05:49 28.8 °F /  -1.8 °C 18.9 °F /  -7.3 °C 29.98in /  1015.1hPa ENE 1.0mph /  1.6km/h 4.0mph /  6.4km/h 66% 0.00in /  0mm
05:59 29.0 °F /  -1.7 °C 18.3 °F /  -7.6 °C 29.98in /  1015.1hPa ENE 2.0mph /  3.2km/h 4.0mph /  6.4km/h 64% 0.00in /  0mm
06:04 29.2 °F /  -1.6 °C 18.5 °F /  -7.5 °C 29.98in /  1015.1hPa ENE 1.0mph /  1.6km/h 4.0mph /  6.4km/h 64% 0.00in /  0mm
06:09 29.2 °F /  -1.6 °C 18.2 °F /  -7.7 °C 29.98in /  1015.1hPa Calm   3.0mph /  4.8km/h 63% 0.00in /  0mm
06:14 29.2 °F /  -1.6 °C 18.5 °F /  -7.5 °C 29.98in /  1015.1hPa Calm   1.0mph /  1.6km/h 64% 0.00in /  0mm
06:19 29.2 °F /  -1.6 °C 18.2 °F /  -7.7 °C 29.98in /  1015.1hPa Calm   2.0mph /  3.2km/h 63% 0.00in /  0mm
06:24 29.2 °F /  -1.6 °C 18.2 °F /  -7.7 °C 29.98in /  1015.1hPa Calm   2.0mph /  3.2km/h 63% 0.00in /  0mm
06:29 29.3 °F /  -1.5 °C 18.3 °F /  -7.6 °C 29.98in /  1015.1hPa Calm   3.0mph /  4.8km/h 63% 0.00in /  0mm
06:34 29.4 °F /  -1.4 °C 18.0 °F /  -7.8 °C 29.99in /  1015.5hPa Calm   3.0mph /  4.8km/h 62% 0.00in /  0mm
06:39 29.6 °F /  -1.3 °C 18.2 °F /  -7.7 °C 29.99in /  1015.5hPa ENE 1.0mph /  1.6km/h 3.0mph /  4.8km/h 62% 0.00in /  0mm
06:44 29.7 °F /  -1.3 °C 18.3 °F /  -7.6 °C 29.98in /  1015.1hPa Calm   3.0mph /  4.8km/h 62% 0.00in /  0mm
06:49 29.7 °F /  -1.3 °C 18.3 °F /  -7.6 °C 29.99in /  1015.5hPa Calm   3.0mph /  4.8km/h 62% 0.00in /  0mm
06:54 29.8 °F /  -1.2 °C 18.4 °F /  -7.6 °C 29.98in /  1015.1hPa Calm   3.0mph /  4.8km/h 62% 0.00in /  0mm
06:59 29.8 °F /  -1.2 °C 18.0 °F /  -7.8 °C 29.99in /  1015.5hPa Calm   3.0mph /  4.8km/h 61% 0.00in /  0mm
07:04 29.9 °F /  -1.2 °C 18.5 °F /  -7.5 °C 29.99in /  1015.5hPa Calm   2.0mph /  3.2km/h 62% 0.00in /  0mm
07:09 30.0 °F /  -1.1 °C 18.2 °F /  -7.7 °C 29.99in /  1015.5hPa Calm   3.0mph /  4.8km/h 61% 0.00in /  0mm
07:14 30.1 °F /  -1.1 °C 17.9 °F /  -7.8 °C 29.99in /  1015.5hPa Calm   3.0mph /  4.8km/h 60% 0.00in /  0mm
07:19 30.2 °F /  -1 °C 18.0 °F /  -7.8 °C 29.99in /  1015.5hPa Calm   1.0mph /  1.6km/h 60% 0.00in /  0mm
07:24 30.3 °F /  -0.9 °C 18.1 °F /  -7.7 °C 29.99in /  1015.5hPa Calm     60% 0.00in /  0mm
07:29 30.4 °F /  -0.9 °C 17.8 °F /  -7.9 °C 29.99in /  1015.5hPa Calm     59% 0.00in /  0mm
07:34 30.4 °F /  -0.9 °C 18.2 °F /  -7.7 °C 29.99in /  1015.5hPa Calm     60% 0.00in /  0mm
07:39 30.5 °F /  -0.8 °C 18.3 °F /  -7.6 °C 29.99in /  1015.5hPa Calm     60% 0.00in /  0mm
07:44 30.5 °F /  -0.8 °C 18.3 °F /  -7.6 °C 29.99in /  1015.5hPa Calm   1.0mph /  1.6km/h 60% 0.00in /  0mm
07:49 30.6 °F /  -0.8 °C 18.4 °F /  -7.6 °C 29.99in /  1015.5hPa Calm   1.0mph /  1.6km/h 60% 0.00in /  0mm
07:54 30.6 °F /  -0.8 °C 18.4 °F /  -7.6 °C 29.99in /  1015.5hPa ENE 1.0mph /  1.6km/h 3.0mph /  4.8km/h 60% 0.00in /  0mm
07:59 30.7 °F /  -0.7 °C 18.5 °F /  -7.5 °C 29.99in /  1015.5hPa Calm   3.0mph /  4.8km/h 60% 0.00in /  0mm
08:04 30.8 °F /  -0.7 °C 18.9 °F /  -7.3 °C 29.99in /  1015.5hPa Calm   3.0mph /  4.8km/h 61% 0.00in /  0mm
08:09 31.0 °F /  -0.6 °C 18.7 °F /  -7.4 °C 29.99in /  1015.5hPa ENE 1.0mph /  1.6km/h 3.0mph /  4.8km/h 60% 0.00in /  0mm
08:14 31.0 °F /  -0.6 °C 18.7 °F /  -7.4 °C 29.99in /  1015.5hPa Calm   2.0mph /  3.2km/h 60% 0.00in /  0mm
08:19 31.1 °F /  -0.5 °C 18.8 °F /  -7.3 °C 29.99in /  1015.5hPa Calm   2.0mph /  3.2km/h 60% 0.00in /  0mm
08:24 31.2 °F /  -0.4 °C 18.9 °F /  -7.3 °C 29.99in /  1015.5hPa Calm   3.0mph /  4.8km/h 60% 0.00in /  0mm
08:34 31.6 °F /  -0.2 °C 18.9 °F /  -7.3 °C 29.99in /  1015.5hPa ENE 1.0mph /  1.6km/h 4.0mph /  6.4km/h 59% 0.00in /  0mm
08:39 31.9 °F /  -0.1 °C 18.8 °F /  -7.3 °C 29.99in /  1015.5hPa ENE 1.0mph /  1.6km/h 4.0mph /  6.4km/h 58% 0.00in /  0mm
08:44 32.2 °F /  0.1 °C 19.1 °F /  -7.2 °C 29.99in /  1015.5hPa Calm   3.0mph /  4.8km/h 58% 0.00in /  0mm
08:49 32.4 °F /  0.2 °C 18.9 °F /  -7.3 °C 29.99in /  1015.5hPa Calm   3.0mph /  4.8km/h 57% 0.00in /  0mm
08:54 32.7 °F /  0.4 °C 18.7 °F /  -7.4 °C 29.99in /  1015.5hPa Calm   1.0mph /  1.6km/h 56% 0.00in /  0mm
08:59 33.2 °F /  0.7 °C 19.2 °F /  -7.1 °C 29.98in /  1015.1hPa Calm     56% 0.00in /  0mm
09:04 33.8 °F /  1 °C 19.3 °F /  -7.1 °C 29.98in /  1015.1hPa Calm     55% 0.00in /  0mm
09:09 34.2 °F /  1.2 °C 18.8 °F /  -7.3 °C 29.99in /  1015.5hPa Calm     53% 0.00in /  0mm
09:14 34.4 °F /  1.3 °C 18.6 °F /  -7.4 °C 29.99in /  1015.5hPa Calm   1.0mph /  1.6km/h 52% 0.00in /  0mm
09:19 34.6 °F /  1.4 °C 18.8 °F /  -7.3 °C 29.99in /  1015.5hPa Calm   2.0mph /  3.2km/h 52% 0.00in /  0mm
09:24 34.7 °F /  1.5 °C 19.3 °F /  -7.1 °C 29.99in /  1015.5hPa Calm   2.0mph /  3.2km/h 53% 0.00in /  0mm
09:29 34.8 °F /  1.6 °C 18.5 °F /  -7.5 °C 29.99in /  1015.5hPa Calm     51% 0.00in /  0mm
09:34 34.8 °F /  1.6 °C 18.5 °F /  -7.5 °C 29.99in /  1015.5hPa Calm     51% 0.00in /  0mm
10:29 38.9 °F /  3.8 °C 19.4 °F /  -7 °C 29.98in /  1015.1hPa Calm   3.0mph /  4.8km/h 45% 0.00in /  0mm
10:34 38.8 °F /  3.8 °C 18.2 °F /  -7.7 °C 29.98in /  1015.1hPa SW 2.0mph /  3.2km/h 4.0mph /  6.4km/h 43% 0.00in /  0mm
10:39 38.9 °F /  3.8 °C 18.3 °F /  -7.6 °C 29.98in /  1015.1hPa Calm   4.0mph /  6.4km/h 43% 0.00in /  0mm
10:44 39.8 °F /  4.3 °C 19.1 °F /  -7.2 °C 29.98in /  1015.1hPa Calm   3.0mph /  4.8km/h 43% 0.00in /  0mm
10:50 40.5 °F /  4.7 °C 18.6 °F /  -7.4 °C 29.98in /  1015.1hPa North 1.0mph /  1.6km/h 4.0mph /  6.4km/h 41% 0.00in /  0mm
10:55 40.8 °F /  4.9 °C 18.9 °F /  -7.3 °C 29.97in /  1014.8hPa ENE 1.0mph /  1.6km/h 4.0mph /  6.4km/h 41% 0.00in /  0mm
11:05 40.5 °F /  4.7 °C 19.8 °F /  -6.8 °C 29.97in /  1014.8hPa NE 1.0mph /  1.6km/h 5.0mph /  8km/h 43% 0.00in /  0mm
11:10 40.7 °F /  4.8 °C 19.9 °F /  -6.7 °C 29.97in /  1014.8hPa Calm   5.0mph /  8km/h 43% 0.00in /  0mm
11:15 40.8 °F /  4.9 °C 18.3 °F /  -7.6 °C 29.97in /  1014.8hPa NW 2.0mph /  3.2km/h 5.0mph /  8km/h 40% 0.00in /  0mm
11:20 41.1 °F /  5.1 °C 19.2 °F /  -7.1 °C 29.97in /  1014.8hPa NW 3.0mph /  4.8km/h 7.0mph /  11.3km/h 41% 0.00in /  0mm
11:30 42.0 °F /  5.6 °C 19.4 °F /  -7 °C 29.97in /  1014.8hPa Calm   6.0mph /  9.7km/h 40% 0.00in /  0mm
11:35 41.8 °F /  5.4 °C 18.6 °F /  -7.4 °C 29.97in /  1014.8hPa Calm   5.0mph /  8km/h 39% 0.00in /  0mm
11:40 41.8 °F /  5.4 °C 17.4 °F /  -8.1 °C 29.97in /  1014.8hPa SW 1.0mph /  1.6km/h 4.0mph /  6.4km/h 37% 0.00in /  0mm
11:50 41.8 °F /  5.4 °C 17.4 °F /  -8.1 °C 29.96in /  1014.4hPa East 3.0mph /  4.8km/h 8.0mph /  12.9km/h 37% 0.00in /  0mm
11:55 42.2 °F /  5.7 °C 17.8 °F /  -7.9 °C 29.96in /  1014.4hPa Calm   8.0mph /  12.9km/h 37% 0.00in /  0mm
12:05 43.6 °F /  6.4 °C 19.0 °F /  -7.2 °C 29.96in /  1014.4hPa NW 5.0mph /  8km/h 8.0mph /  12.9km/h 37% 0.00in /  0mm
12:10 43.3 °F /  6.3 °C 16.8 °F /  -8.4 °C 29.96in /  1014.4hPa NNE 3.0mph /  4.8km/h 8.0mph /  12.9km/h 34% 0.00in /  0mm
12:15 42.9 °F /  6.1 °C 17.8 °F /  -7.9 °C 29.96in /  1014.4hPa East 2.0mph /  3.2km/h 7.0mph /  11.3km/h 36% 0.00in /  0mm
12:20 42.9 °F /  6.1 °C 16.4 °F /  -8.7 °C 29.95in /  1014.1hPa NE 3.0mph /  4.8km/h 8.0mph /  12.9km/h 34% 0.00in /  0mm
12:25 43.1 °F /  6.2 °C 17.3 °F /  -8.2 °C 29.95in /  1014.1hPa ENE 1.0mph /  1.6km/h 9.0mph /  14.5km/h 35% 0.00in /  0mm
12:30 43.3 °F /  6.3 °C 16.8 °F /  -8.4 °C 29.95in /  1014.1hPa East 1.0mph /  1.6km/h 9.0mph /  14.5km/h 34% 0.00in /  0mm
12:35 42.8 °F /  6 °C 17.0 °F /  -8.3 °C 29.95in /  1014.1hPa East 2.0mph /  3.2km/h 9.0mph /  14.5km/h 35% 0.00in /  0mm
12:45 42.7 °F /  5.9 °C 17.6 °F /  -8 °C 29.94in /  1013.8hPa NNE 2.0mph /  3.2km/h 8.0mph /  12.9km/h 36% 0.00in /  0mm
12:50 43.1 °F /  6.2 °C 17.3 °F /  -8.2 °C 29.94in /  1013.8hPa Calm   8.0mph /  12.9km/h 35% 0.00in /  0mm
13:00 44.9 °F /  7.2 °C 16.8 °F /  -8.4 °C 29.94in /  1013.8hPa NW 1.0mph /  1.6km/h 9.0mph /  14.5km/h 32% 0.00in /  0mm
13:10 45.4 °F /  7.4 °C 17.3 °F /  -8.2 °C 29.93in /  1013.4hPa NNW 2.0mph /  3.2km/h 6.0mph /  9.7km/h 32% 0.00in /  0mm
13:15 45.3 °F /  7.4 °C 15.7 °F /  -9.1 °C 29.93in /  1013.4hPa NW 5.0mph /  8km/h 7.0mph /  11.3km/h 30% 0.00in /  0mm
13:20 45.0 °F /  7.2 °C 17.6 °F /  -8 °C 29.92in /  1013.1hPa ENE 2.0mph /  3.2km/h 9.0mph /  14.5km/h 33% 0.00in /  0mm
13:25 44.8 °F /  7.1 °C 18.1 °F /  -7.7 °C 29.92in /  1013.1hPa ENE 1.0mph /  1.6km/h 9.0mph /  14.5km/h 34% 0.00in /  0mm
13:30 45.1 °F /  7.3 °C 17.0 °F /  -8.3 °C 29.92in /  1013.1hPa ENE 2.0mph /  3.2km/h 8.0mph /  12.9km/h 32% 0.00in /  0mm
13:35 45.3 °F /  7.4 °C 16.4 °F /  -8.7 °C 29.92in /  1013.1hPa NNW 1.0mph /  1.6km/h 7.0mph /  11.3km/h 31% 0.00in /  0mm
13:40 45.1 °F /  7.3 °C 17.7 °F /  -7.9 °C 29.92in /  1013.1hPa ESE 2.0mph /  3.2km/h 7.0mph /  11.3km/h 33% 0.00in /  0mm
13:50 45.0 °F /  7.2 °C 19.0 °F /  -7.2 °C 29.92in /  1013.1hPa WNW 3.0mph /  4.8km/h 6.0mph /  9.7km/h 35% 0.00in /  0mm
13:55 45.7 °F /  7.6 °C 22.2 °F /  -5.4 °C 29.91in /  1012.8hPa North 2.0mph /  3.2km/h 6.0mph /  9.7km/h 39% 0.00in /  0mm
14:00 46.1 °F /  7.8 °C 21.9 °F /  -5.6 °C 29.91in /  1012.8hPa WNW 6.0mph /  9.7km/h 13.0mph /  20.9km/h 38% 0.00in /  0mm
14:05 45.9 °F /  7.7 °C 20.4 °F /  -6.4 °C 29.91in /  1012.8hPa West 5.0mph /  8km/h 13.0mph /  20.9km/h 36% 0.00in /  0mm
14:10 45.6 °F /  7.6 °C 18.8 °F /  -7.3 °C 29.91in /  1012.8hPa SW 1.0mph /  1.6km/h 12.0mph /  19.3km/h 34% 0.00in /  0mm
14:15 45.9 °F /  7.7 °C 21.1 °F /  -6.1 °C 29.91in /  1012.8hPa WSW 4.0mph /  6.4km/h 10.0mph /  16.1km/h 37% 0.00in /  0mm
14:20 46.1 °F /  7.8 °C 21.9 °F /  -5.6 °C 29.91in /  1012.8hPa NW 7.0mph /  11.3km/h 10.0mph /  16.1km/h 38% 0.00in /  0mm
14:30 46.0 °F /  7.8 °C 22.4 °F /  -5.3 °C 29.90in /  1012.4hPa NW 6.0mph /  9.7km/h 11.0mph /  17.7km/h 39% 0.00in /  0mm
14:35 45.8 °F /  7.7 °C 21.0 °F /  -6.1 °C 29.90in /  1012.4hPa NW 4.0mph /  6.4km/h 11.0mph /  17.7km/h 37% 0.00in /  0mm
14:45 46.5 °F /  8.1 °C 21.0 °F /  -6.1 °C 29.90in /  1012.4hPa NNE 1.0mph /  1.6km/h 8.0mph /  12.9km/h 36% 0.00in /  0mm
14:50 46.6 °F /  8.1 °C 20.4 °F /  -6.4 °C 29.90in /  1012.4hPa NNW 2.0mph /  3.2km/h 7.0mph /  11.3km/h 35% 0.00in /  0mm
14:55 46.5 °F /  8.1 °C 21.0 °F /  -6.1 °C 29.90in /  1012.4hPa WNW 8.0mph /  12.9km/h 16.0mph /  25.7km/h 36% 0.00in /  0mm
15:00 46.0 °F /  7.8 °C 20.5 °F /  -6.4 °C 29.89in /  1012.1hPa North 1.0mph /  1.6km/h 16.0mph /  25.7km/h 36% 0.00in /  0mm
15:10 47.2 °F /  8.4 °C 21.6 °F /  -5.8 °C 29.89in /  1012.1hPa NW 4.0mph /  6.4km/h 11.0mph /  17.7km/h 36% 0.00in /  0mm
15:15 46.8 °F /  8.2 °C 21.9 °F /  -5.6 °C 29.89in /  1012.1hPa NNW 4.0mph /  6.4km/h 12.0mph /  19.3km/h 37% 0.00in /  0mm
15:20 46.7 °F /  8.2 °C 21.2 °F /  -6 °C 29.89in /  1012.1hPa NW 6.0mph /  9.7km/h 12.0mph /  19.3km/h 36% 0.00in /  0mm
15:25 46.2 °F /  7.9 °C 21.4 °F /  -5.9 °C 29.88in /  1011.7hPa NNW 2.0mph /  3.2km/h 14.0mph /  22.5km/h 37% 0.00in /  0mm
15:30 46.9 °F /  8.3 °C 22.0 °F /  -5.6 °C 29.88in /  1011.7hPa NNW 6.0mph /  9.7km/h 14.0mph /  22.5km/h 37% 0.00in /  0mm
15:35 46.1 °F /  7.8 °C 21.3 °F /  -5.9 °C 29.88in /  1011.7hPa WNW 6.0mph /  9.7km/h 11.0mph /  17.7km/h 37% 0.00in /  0mm
15:40 45.9 °F /  7.7 °C 21.1 °F /  -6.1 °C 29.88in /  1011.7hPa WNW 5.0mph /  8km/h 11.0mph /  17.7km/h 37% 0.00in /  0mm
15:50 46.0 °F /  7.8 °C 21.2 °F /  -6 °C 29.88in /  1011.7hPa NW 3.0mph /  4.8km/h 10.0mph /  16.1km/h 37% 0.00in /  0mm
15:55 46.6 °F /  8.1 °C 21.1 °F /  -6.1 °C 29.88in /  1011.7hPa NNW 5.0mph /  8km/h 11.0mph /  17.7km/h 36% 0.00in /  0mm
16:00 46.8 °F /  8.2 °C 19.9 °F /  -6.7 °C 29.88in /  1011.7hPa North 3.0mph /  4.8km/h 11.0mph /  17.7km/h 34% 0.00in /  0mm
16:10 45.9 °F /  7.7 °C 19.8 °F /  -6.8 °C 29.88in /  1011.7hPa WNW 7.0mph /  11.3km/h 15.0mph /  24.1km/h 35% 0.00in /  0mm
16:15 45.8 °F /  7.7 °C 20.4 °F /  -6.4 °C 29.88in /  1011.7hPa NNW 6.0mph /  9.7km/h 15.0mph /  24.1km/h 36% 0.00in /  0mm
16:20 46.3 °F /  7.9 °C 20.8 °F /  -6.2 °C 29.88in /  1011.7hPa WNW 5.0mph /  8km/h 11.0mph /  17.7km/h 36% 0.00in /  0mm
16:25 46.4 °F /  8 °C 20.2 °F /  -6.6 °C 29.88in /  1011.7hPa NNW 6.0mph /  9.7km/h 10.0mph /  16.1km/h 35% 0.00in /  0mm
16:30 46.3 °F /  7.9 °C 19.5 °F /  -6.9 °C 29.87in /  1011.4hPa NW 5.0mph /  8km/h 10.0mph /  16.1km/h 34% 0.00in /  0mm
16:35 46.5 °F /  8.1 °C 21.6 °F /  -5.8 °C 29.87in /  1011.4hPa NW 2.0mph /  3.2km/h 11.0mph /  17.7km/h 37% 0.00in /  0mm
16:40 46.8 °F /  8.2 °C 21.2 °F /  -6 °C 29.87in /  1011.4hPa NNW 1.0mph /  1.6km/h 13.0mph /  20.9km/h 36% 0.00in /  0mm
16:45 47.0 °F /  8.3 °C 20.8 °F /  -6.2 °C 29.87in /  1011.4hPa NW 3.0mph /  4.8km/h 13.0mph /  20.9km/h 35% 0.00in /  0mm
16:50 46.3 °F /  7.9 °C 20.1 °F /  -6.6 °C 29.87in /  1011.4hPa NW 5.0mph /  8km/h 9.0mph /  14.5km/h 35% 0.00in /  0mm
16:55 46.3 °F /  7.9 °C 20.1 °F /  -6.6 °C 29.86in /  1011.1hPa NNW 1.0mph /  1.6km/h 9.0mph /  14.5km/h 35% 0.00in /  0mm
17:00 47.0 °F /  8.3 °C 20.8 °F /  -6.2 °C 29.86in /  1011.1hPa Calm   5.0mph /  8km/h 35% 0.00in /  0mm
17:05 47.3 °F /  8.5 °C 21.0 °F /  -6.1 °C 29.86in /  1011.1hPa Calm   7.0mph /  11.3km/h 35% 0.00in /  0mm
17:10 47.5 °F /  8.6 °C 21.2 °F /  -6 °C 29.86in /  1011.1hPa North 1.0mph /  1.6km/h 7.0mph /  11.3km/h 35% 0.00in /  0mm
17:15 47.1 °F /  8.4 °C 20.2 °F /  -6.6 °C 29.86in /  1011.1hPa NW 8.0mph /  12.9km/h 11.0mph /  17.7km/h 34% 0.00in /  0mm
17:20 46.5 °F /  8.1 °C 21.0 °F /  -6.1 °C 29.87in /  1011.4hPa NW 3.0mph /  4.8km/h 11.0mph /  17.7km/h 36% 0.00in /  0mm
17:25 46.7 °F /  8.2 °C 21.2 °F /  -6 °C 29.86in /  1011.1hPa NW 3.0mph /  4.8km/h 11.0mph /  17.7km/h 36% 0.00in /  0mm
17:30 46.4 °F /  8 °C 20.9 °F /  -6.2 °C 29.86in /  1011.1hPa NNW 4.0mph /  6.4km/h 11.0mph /  17.7km/h 36% 0.00in /  0mm
17:35 46.1 °F /  7.8 °C 20.6 °F /  -6.3 °C 29.87in /  1011.4hPa WNW 4.0mph /  6.4km/h 11.0mph /  17.7km/h 36% 0.00in /  0mm
17:40 45.5 °F /  7.5 °C 20.7 °F /  -6.3 °C 29.86in /  1011.1hPa NNW 2.0mph /  3.2km/h 11.0mph /  17.7km/h 37% 0.00in /  0mm
17:45 45.7 °F /  7.6 °C 20.9 °F /  -6.2 °C 29.86in /  1011.1hPa NNW 3.0mph /  4.8km/h 11.0mph /  17.7km/h 37% 0.00in /  0mm
17:50 45.9 °F /  7.7 °C 20.4 °F /  -6.4 °C 29.87in /  1011.4hPa NNW 1.0mph /  1.6km/h 8.0mph /  12.9km/h 36% 0.00in /  0mm
18:00 46.1 °F /  7.8 °C 20.6 °F /  -6.3 °C 29.87in /  1011.4hPa NW 4.0mph /  6.4km/h 6.0mph /  9.7km/h 36% 0.00in /  0mm
18:05 46.0 °F /  7.8 °C 20.5 °F /  -6.4 °C 29.87in /  1011.4hPa NW 1.0mph /  1.6km/h 6.0mph /  9.7km/h 36% 0.00in /  0mm
18:10 46.1 °F /  7.8 °C 21.3 °F /  -5.9 °C 29.87in /  1011.4hPa NW 1.0mph /  1.6km/h 6.0mph /  9.7km/h 37% 0.00in /  0mm
18:15 45.8 °F /  7.7 °C 20.4 °F /  -6.4 °C 29.87in /  1011.4hPa NW 3.0mph /  4.8km/h 6.0mph /  9.7km/h 36% 0.00in /  0mm
18:20 45.2 °F /  7.3 °C 21.1 °F /  -6.1 °C 29.87in /  1011.4hPa NW 1.0mph /  1.6km/h 8.0mph /  12.9km/h 38% 0.00in /  0mm
18:25 44.8 °F /  7.1 °C 20.7 °F /  -6.3 °C 29.87in /  1011.4hPa NW 3.0mph /  4.8km/h 9.0mph /  14.5km/h 38% 0.00in /  0mm
18:30 44.2 °F /  6.8 °C 20.8 °F /  -6.2 °C 29.87in /  1011.4hPa NW 4.0mph /  6.4km/h 9.0mph /  14.5km/h 39% 0.00in /  0mm
18:35 43.5 °F /  6.4 °C 20.2 °F /  -6.6 °C 29.87in /  1011.4hPa NW 3.0mph /  4.8km/h 8.0mph /  12.9km/h 39% 0.00in /  0mm
18:40 43.0 °F /  6.1 °C 20.3 °F /  -6.5 °C 29.87in /  1011.4hPa NW 3.0mph /  4.8km/h 10.0mph /  16.1km/h 40% 0.00in /  0mm
18:45 42.7 °F /  5.9 °C 20.1 °F /  -6.6 °C 29.87in /  1011.4hPa NW 3.0mph /  4.8km/h 10.0mph /  16.1km/h 40% 0.00in /  0mm
18:55 41.9 °F /  5.5 °C 20.5 °F /  -6.4 °C 29.87in /  1011.4hPa Calm   8.0mph /  12.9km/h 42% 0.00in /  0mm
19:00 41.6 °F /  5.3 °C 20.2 °F /  -6.6 °C 29.87in /  1011.4hPa Calm   5.0mph /  8km/h 42% 0.00in /  0mm
19:05 41.2 °F /  5.1 °C 20.4 °F /  -6.4 °C 29.87in /  1011.4hPa NNW 1.0mph /  1.6km/h 5.0mph /  8km/h 43% 0.00in /  0mm
19:10 40.5 °F /  4.7 °C 19.8 °F /  -6.8 °C 29.87in /  1011.4hPa Calm   5.0mph /  8km/h 43% 0.00in /  0mm
19:15 39.9 °F /  4.4 °C 19.7 °F /  -6.8 °C 29.88in /  1011.7hPa Calm   3.0mph /  4.8km/h 44% 0.00in /  0mm
19:20 39.2 °F /  4 °C 19.6 °F /  -6.9 °C 29.88in /  1011.7hPa Calm   2.0mph /  3.2km/h 45% 0.00in /  0mm
19:25 38.6 °F /  3.7 °C 19.1 °F /  -7.2 °C 29.88in /  1011.7hPa Calm     45% 0.00in /  0mm
19:35 37.8 °F /  3.2 °C 19.9 °F /  -6.7 °C 29.88in /  1011.7hPa Calm   2.0mph /  3.2km/h 48% 0.00in /  0mm
19:40 37.4 °F /  3 °C 20.0 °F /  -6.7 °C 29.88in /  1011.7hPa Calm   2.0mph /  3.2km/h 49% 0.00in /  0mm
19:45 37.0 °F /  2.8 °C 19.6 °F /  -6.9 °C 29.88in /  1011.7hPa Calm     49% 0.00in /  0mm
19:50 36.7 °F /  2.6 °C 20.7 °F /  -6.3 °C 29.88in /  1011.7hPa Calm     52% 0.00in /  0mm
19:55 36.3 °F /  2.4 °C 20.4 °F /  -6.4 °C 29.88in /  1011.7hPa Calm     52% 0.00in /  0mm
20:00 36.0 °F /  2.2 °C 20.5 °F /  -6.4 °C 29.88in /  1011.7hPa Calm     53% 0.00in /  0mm
20:05 35.7 °F /  2.1 °C 20.2 °F /  -6.6 °C 29.88in /  1011.7hPa Calm     53% 0.00in /  0mm
20:15 34.9 °F /  1.6 °C 21.2 °F /  -6 °C 29.88in /  1011.7hPa Calm     57% 0.00in /  0mm
20:20 34.5 °F /  1.4 °C 20.0 °F /  -6.7 °C 29.88in /  1011.7hPa Calm     55% 0.00in /  0mm
20:25 34.4 °F /  1.3 °C 19.9 °F /  -6.7 °C 29.88in /  1011.7hPa Calm     55% 0.00in /  0mm
20:30 34.4 °F /  1.3 °C 20.7 °F /  -6.3 °C 29.88in /  1011.7hPa Calm     57% 0.00in /  0mm
20:35 34.2 °F /  1.2 °C 21.0 °F /  -6.1 °C 29.88in /  1011.7hPa Calm     58% 0.00in /  0mm
20:40 34.0 °F /  1.1 °C 21.6 °F /  -5.8 °C 29.88in /  1011.7hPa Calm     60% 0.00in /  0mm
20:50 33.8 °F /  1 °C 21.0 °F /  -6.1 °C 29.88in /  1011.7hPa Calm     59% 0.00in /  0mm
20:55 33.9 °F /  1.1 °C 21.1 °F /  -6.1 °C 29.88in /  1011.7hPa Calm     59% 0.00in /  0mm
21:00 33.8 °F /  1 °C 21.8 °F /  -5.7 °C 29.88in /  1011.7hPa Calm     61% 0.00in /  0mm
21:05 33.6 °F /  0.9 °C 21.2 °F /  -6 °C 29.88in /  1011.7hPa Calm     60% 0.00in /  0mm
21:10 33.6 °F /  0.9 °C 20.8 °F /  -6.2 °C 29.88in /  1011.7hPa Calm     59% 0.00in /  0mm
21:15 34.1 °F /  1.2 °C 20.9 °F /  -6.2 °C 29.88in /  1011.7hPa Calm     58% 0.00in /  0mm
21:20 34.2 °F /  1.2 °C 21.4 °F /  -5.9 °C 29.88in /  1011.7hPa Calm   3.0mph /  4.8km/h 59% 0.00in /  0mm
21:25 34.1 °F /  1.2 °C 21.7 °F /  -5.7 °C 29.87in /  1011.4hPa Calm   3.0mph /  4.8km/h 60% 0.00in /  0mm
21:30 34.0 °F /  1.1 °C 22.0 °F /  -5.6 °C 29.87in /  1011.4hPa Calm     61% 0.00in /  0mm
21:35 33.7 °F /  0.9 °C 21.7 °F /  -5.7 °C 29.87in /  1011.4hPa Calm     61% 0.00in /  0mm
21:40 33.5 °F /  0.8 °C 21.5 °F /  -5.8 °C 29.87in /  1011.4hPa Calm     61% 0.00in /  0mm
21:45 33.2 °F /  0.7 °C 21.6 °F /  -5.8 °C 29.87in /  1011.4hPa Calm     62% 0.00in /  0mm
21:50 33.2 °F /  0.7 °C 21.2 °F /  -6 °C 29.87in /  1011.4hPa Calm     61% 0.00in /  0mm
21:55 33.2 °F /  0.7 °C 21.2 °F /  -6 °C 29.87in /  1011.4hPa Calm   2.0mph /  3.2km/h 61% 0.00in /  0mm
22:00 33.0 °F /  0.6 °C 21.4 °F /  -5.9 °C 29.87in /  1011.4hPa Calm   2.0mph /  3.2km/h 62% 0.00in /  0mm
22:10 33.1 °F /  0.6 °C 21.5 °F /  -5.8 °C 29.87in /  1011.4hPa Calm     62% 0.00in /  0mm
22:15 33.2 °F /  0.7 °C 21.2 °F /  -6 °C 29.87in /  1011.4hPa Calm     61% 0.00in /  0mm
22:20 33.3 °F /  0.7 °C 21.3 °F /  -5.9 °C 29.87in /  1011.4hPa Calm     61% 0.00in /  0mm
22:25 33.0 °F /  0.6 °C 21.8 °F /  -5.7 °C 29.87in /  1011.4hPa Calm     63% 0.00in /  0mm
22:30 32.3 °F /  0.2 °C 21.5 °F /  -5.8 °C 29.87in /  1011.4hPa Calm     64% 0.00in /  0mm
22:35 31.8 °F /  -0.1 °C 21.4 °F /  -5.9 °C 29.87in /  1011.4hPa Calm     65% 0.00in /  0mm
22:40 31.7 °F /  -0.2 °C 21.3 °F /  -5.9 °C 29.87in /  1011.4hPa Calm     65% 0.00in /  0mm
22:45 31.6 °F /  -0.2 °C 21.2 °F /  -6 °C 29.87in /  1011.4hPa Calm     65% 0.00in /  0mm
22:50 31.3 °F /  -0.4 °C 20.5 °F /  -6.4 °C 29.87in /  1011.4hPa Calm     64% 0.00in /  0mm
22:55 31.0 °F /  -0.6 °C 19.9 °F /  -6.7 °C 29.87in /  1011.4hPa Calm     63% 0.00in /  0mm
23:05 30.9 °F /  -0.6 °C 19.8 °F /  -6.8 °C 29.88in /  1011.7hPa Calm     63% 0.00in /  0mm
23:10 31.4 °F /  -0.3 °C 21.0 °F /  -6.1 °C 29.87in /  1011.4hPa Calm   1.0mph /  1.6km/h 65% 0.00in /  0mm
23:15 31.2 °F /  -0.4 °C 20.8 °F /  -6.2 °C 29.87in /  1011.4hPa Calm   1.0mph /  1.6km/h 65% 0.00in /  0mm
23:20 30.7 °F /  -0.7 °C 20.0 °F /  -6.7 °C 29.87in /  1011.4hPa Calm     64% 0.00in /  0mm
23:25 30.9 °F /  -0.6 °C 19.8 °F /  -6.8 °C 29.87in /  1011.4hPa Calm     63% 0.00in /  0mm
23:30 31.1 °F /  -0.5 °C 19.6 °F /  -6.9 °C 29.87in /  1011.4hPa Calm     62% 0.00in /  0mm
23:40 31.9 °F /  -0.1 °C 20.7 °F /  -6.3 °C 29.86in /  1011.1hPa Calm     63% 0.00in /  0mm
23:45 32.1 °F /  0.1 °C 20.5 °F /  -6.4 °C 29.86in /  1011.1hPa Calm     62% 0.00in /  0mm
23:50 31.5 °F /  -0.3 °C 19.2 °F /  -7.1 °C 29.86in /  1011.1hPa Calm     60% 0.00in /  0mm
23:55 31.2 °F /  -0.4 °C 18.9 °F /  -7.3 °C 29.86in /  1011.1hPa Calm     60% 0.00in /  0mm
Westford Weather
Compliments of Weather Underground

 
 
Current Radar Loop:

Copyright © WestfordWeather.net 2007-2014. All rights reserved.